Time;durP1;ratioP1;P1;durP2;ratioP2;P2;SDS_P1;SDS_P2;PMS_P1;PMS_P2;Temp;Humidity;BMP_temperature;BMP_pressure;BME280_temperature;BME280_humidity;BME280_pressure;Samples;Min_cycle;Max_cycle;Signal;HPM_P1;HPM_P2
2022/06/08 00:00:15;;;;;;;6.07;3.10;;;;;;;15.18;52.57;100458.91;5016812;28;20120;-67
2022/06/08 00:02:46;;;;;;;8.60;3.50;;;;;;;15.18;52.11;100461.59;5016947;28;20449;-67
2022/06/08 00:05:13;;;;;;;6.35;3.33;;;;;;;15.18;52.27;100458.91;5016730;28;20224;-67
2022/06/08 00:07:39;;;;;;;8.13;4.18;;;;;;;15.19;52.24;100457.88;5017602;28;20140;-69
2022/06/08 00:10:07;;;;;;;6.38;3.10;;;;;;;15.11;51.90;100451.78;5016594;28;20089;-68
2022/06/08 00:12:34;;;;;;;7.93;3.50;;;;;;;15.10;51.83;100453.66;5017498;28;20108;-69
2022/06/08 00:15:01;;;;;;;12.35;3.72;;;;;;;15.17;51.74;100451.00;5016690;28;20054;-68
2022/06/08 00:17:28;;;;;;;6.93;3.35;;;;;;;15.17;51.46;100451.00;5016745;28;20065;-69
2022/06/08 00:19:55;;;;;;;5.55;2.90;;;;;;;15.17;51.77;100445.59;5017155;28;20487;-68
2022/06/08 00:22:21;;;;;;;9.50;2.97;;;;;;;15.15;51.87;100444.94;5017034;28;20426;-68
2022/06/08 00:24:48;;;;;;;8.88;3.58;;;;;;;15.16;51.70;100444.75;5016239;28;20100;-67
2022/06/08 00:27:15;;;;;;;5.70;3.25;;;;;;;15.14;51.81;100452.22;4998640;28;20054;-67
2022/06/08 00:29:42;;;;;;;5.13;2.80;;;;;;;15.10;51.75;100459.06;5016621;28;20089;-68
2022/06/08 00:32:09;;;;;;;6.93;3.15;;;;;;;15.08;51.78;100454.88;5016973;28;20110;-69
2022/06/08 00:34:35;;;;;;;6.55;3.30;;;;;;;15.08;51.95;100461.09;5016186;28;20074;-68
2022/06/08 00:37:02;;;;;;;8.02;2.90;;;;;;;15.09;51.86;100454.69;5016246;28;20489;-68
2022/06/08 00:39:29;;;;;;;11.00;3.20;;;;;;;15.04;51.90;100451.72;5016177;28;20540;-68
2022/06/08 00:42:00;;;;;;;4.40;2.85;;;;;;;15.01;51.39;100461.06;5015982;28;20073;-67
2022/06/08 00:44:37;;;;;;;6.45;2.65;;;;;;;15.06;51.97;100454.25;5015801;28;20137;-68
2022/06/08 00:47:07;;;;;;;7.93;3.22;;;;;;;15.03;52.59;100450.06;5016385;28;20462;-68
2022/06/08 00:49:47;;;;;;;6.20;3.30;;;;;;;15.00;53.18;100448.59;5015604;28;20078;-68
2022/06/08 00:52:15;;;;;;;11.15;3.47;;;;;;;14.92;53.90;100453.31;5015866;28;20704;-68
2022/06/08 00:54:47;;;;;;;9.60;3.15;;;;;;;14.89;54.21;100448.28;5015408;28;20145;-68
2022/06/08 00:57:22;;;;;;;6.10;3.28;;;;;;;14.79;54.89;100453.19;5016134;28;20085;-68
2022/06/08 00:59:54;;;;;;;5.15;2.80;;;;;;;14.81;54.81;100456.50;5015707;28;20487;-68
2022/06/08 01:02:21;;;;;;;4.38;2.58;;;;;;;14.81;54.89;100451.13;5015168;28;20133;-68
2022/06/08 01:04:48;;;;;;;6.90;2.83;;;;;;;14.75;55.05;100450.88;5015668;28;20148;-67
2022/06/08 01:07:19;;;;;;;6.63;2.47;;;;;;;14.69;54.89;100451.63;5015452;28;20100;-67
2022/06/08 01:09:52;;;;;;;5.82;2.67;;;;;;;14.57;55.39;100453.19;5015678;28;20538;-67
2022/06/08 01:12:20;;;;;;;5.70;2.75;;;;;;;14.56;55.24;100446.09;5015475;28;20146;-67
2022/06/08 01:14:48;;;;;;;7.88;3.00;;;;;;;14.52;55.37;100436.72;5015210;28;20053;-67
2022/06/08 01:17:17;;;;;;;6.50;3.22;;;;;;;14.51;55.15;100435.88;5015339;28;20058;-67
2022/06/08 01:19:47;;;;;;;6.30;3.30;;;;;;;14.52;55.18;100431.31;5015461;28;20069;-67
2022/06/08 01:22:17;;;;;;;6.40;2.67;;;;;;;14.45;55.46;100431.25;5015302;28;20076;-67
2022/06/08 01:24:47;;;;;;;9.30;3.47;;;;;;;14.36;56.11;100431.56;5015146;28;20115;-69
2022/06/08 01:27:23;;;;;;;9.15;3.20;;;;;;;14.30;56.32;100431.31;5015257;28;20096;-67
2022/06/08 01:30:45;;;;;;;9.43;3.50;;;;;;;14.23;56.66;100424.19;5015107;28;20073;-66
2022/06/08 01:33:29;;;;;;;6.70;2.55;;;;;;;14.22;56.87;100428.75;4984536;28;20144;-69
2022/06/08 01:36:25;;;;;;;5.93;3.33;;;;;;;14.15;57.30;100418.88;5014889;28;20133;-67
2022/06/08 01:39:13;;;;;;;6.90;3.10;;;;;;;14.17;57.40;100428.47;5015946;28;20437;-67
2022/06/08 01:41:58;;;;;;;5.68;2.70;;;;;;;14.13;57.07;100424.50;5015023;28;20081;-68
2022/06/08 01:48:16;;;;;;;4.97;2.58;;;;;;;14.05;56.82;100419.22;5014688;28;20096;-68
2022/06/08 01:51:09;;;;;;;5.82;3.00;;;;;;;13.99;57.13;100419.97;5015527;28;20092;-68
2022/06/08 01:54:02;;;;;;;6.50;2.90;;;;;;;13.97;57.28;100428.25;5014789;28;20046;-68
2022/06/08 01:56:37;;;;;;;5.03;2.97;;;;;;;13.92;57.64;100424.47;5014339;28;20073;-68
2022/06/08 01:59:38;;;;;;;5.68;3.25;;;;;;;13.87;57.93;100427.69;5015165;28;20152;-67
2022/06/08 02:02:12;;;;;;;4.32;2.90;;;;;;;13.83;58.33;100419.16;5014608;28;20125;-68
2022/06/08 02:05:03;;;;;;;7.13;2.85;;;;;;;13.80;58.61;100424.94;5015205;28;20414;-67
2022/06/08 02:07:47;;;;;;;6.33;3.37;;;;;;;13.77;58.78;100419.94;5015649;28;20053;-69
2022/06/08 02:10:19;;;;;;;4.90;2.90;;;;;;;13.74;58.74;100417.56;5015346;28;20141;-69
2022/06/08 02:12:53;;;;;;;8.80;2.63;;;;;;;13.67;58.45;100419.34;5015142;28;20430;-69
2022/06/08 02:15:27;;;;;;;4.57;2.60;;;;;;;13.67;58.21;100422.06;5014912;28;20105;-68
2022/06/08 02:17:56;;;;;;;4.65;2.80;;;;;;;13.63;58.36;100422.59;5014664;28;20137;-68
2022/06/08 02:20:35;;;;;;;7.00;2.50;;;;;;;13.62;58.08;100418.22;5014841;28;20133;-67
2022/06/08 02:23:10;;;;;;;6.20;2.70;;;;;;;13.63;57.87;100419.91;5015037;28;20131;-69
2022/06/08 02:25:44;;;;;;;8.70;3.08;;;;;;;13.63;58.07;100420.75;5015391;28;20100;-68
2022/06/08 02:28:17;;;;;;;5.45;2.65;;;;;;;13.59;58.05;100424.81;5014703;28;20068;-68
2022/06/08 02:30:53;;;;;;;4.65;2.25;;;;;;;13.58;58.24;100415.09;5015377;28;20080;-68
2022/06/08 02:36:33;;;;;;;6.95;2.95;;;;;;;13.55;58.41;100426.22;5015325;28;20566;-69
2022/06/08 02:39:18;;;;;;;6.82;2.95;;;;;;;13.56;58.67;100423.38;5015012;28;20144;-68
2022/06/08 02:41:48;;;;;;;9.48;3.10;;;;;;;13.58;58.56;100417.78;5014601;28;20050;-68
2022/06/08 02:44:21;;;;;;;7.50;3.17;;;;;;;13.61;58.46;100433.56;5013304;28;20112;-68
2022/06/08 02:46:51;;;;;;;8.52;3.00;;;;;;;13.63;58.30;100427.97;5013362;28;20140;-68
2022/06/08 02:49:18;;;;;;;4.20;2.75;;;;;;;13.59;57.94;100428.38;5013819;28;20100;-68
2022/06/08 02:51:48;;;;;;;5.22;2.50;;;;;;;13.55;58.22;100434.31;5013704;28;20085;-68
2022/06/08 02:54:23;;;;;;;5.40;2.70;;;;;;;13.55;58.34;100429.75;5013834;28;20427;-68
2022/06/08 02:57:10;;;;;;;6.95;2.78;;;;;;;13.50;58.36;100420.59;5013850;28;20089;-68
2022/06/08 03:00:03;;;;;;;6.13;2.60;;;;;;;13.44;58.65;100421.31;5013657;28;20049;-68
2022/06/08 03:02:50;;;;;;;5.32;2.40;;;;;;;13.44;58.30;100429.41;5003067;28;20137;-68
2022/06/08 03:05:25;;;;;;;4.70;2.60;;;;;;;13.43;58.60;100436.66;4974031;28;20145;-68
2022/06/08 03:07:57;;;;;;;9.65;2.78;;;;;;;13.44;58.67;100418.63;5013709;28;20524;-67
2022/06/08 03:10:26;;;;;;;5.32;2.72;;;;;;;13.44;58.87;100421.31;5014446;28;20046;-67
2022/06/08 03:13:19;;;;;;;5.13;3.03;;;;;;;13.47;58.72;100415.56;5015016;28;20076;-67
2022/06/08 03:15:56;;;;;;;10.73;2.72;;;;;;;13.40;58.77;100420.84;5017300;28;20537;-67
2022/06/08 03:18:23;;;;;;;6.00;3.15;;;;;;;13.40;58.94;100414.63;5017214;28;20054;-68
2022/06/08 03:20:49;;;;;;;6.63;3.50;;;;;;;13.37;58.67;100415.00;5016912;28;20096;-67
2022/06/08 03:23:17;;;;;;;6.03;2.60;;;;;;;13.34;58.53;100417.03;5017132;28;20137;-67
2022/06/08 03:25:44;;;;;;;8.40;2.53;;;;;;;13.38;57.92;100414.81;5017319;28;20050;-67
2022/06/08 03:28:13;;;;;;;9.32;2.80;;;;;;;13.38;58.08;100422.06;5017080;28;20128;-67
2022/06/08 03:30:41;;;;;;;4.45;2.60;;;;;;;13.46;57.67;100419.28;5016982;28;20050;-67
2022/06/08 03:33:08;;;;;;;6.38;2.53;;;;;;;13.37;57.97;100417.69;5016985;28;20049;-67
2022/06/08 03:35:37;;;;;;;4.75;2.50;;;;;;;13.44;57.67;100421.31;5016992;28;20488;-67
2022/06/08 03:38:04;;;;;;;5.82;2.67;;;;;;;13.35;57.59;100417.88;5016861;28;20418;-67
2022/06/08 03:40:32;;;;;;;6.90;2.80;;;;;;;13.46;57.26;100421.97;5016918;28;20129;-67
2022/06/08 03:42:58;;;;;;;7.95;2.63;;;;;;;13.59;56.98;100420.31;5017220;28;20058;-68
2022/06/08 03:45:28;;;;;;;6.05;2.85;;;;;;;13.72;56.71;100425.00;5017918;28;20092;-68
2022/06/08 03:47:55;;;;;;;6.25;2.78;;;;;;;13.73;56.87;100418.56;5018034;28;20538;-68
2022/06/08 03:50:28;;;;;;;9.20;3.22;;;;;;;13.75;56.28;100419.25;5017475;28;20089;-69
2022/06/08 03:53:06;;;;;;;8.90;3.00;;;;;;;13.87;55.88;100418.78;5017158;28;20089;-68
2022/06/08 03:55:35;;;;;;;5.38;2.50;;;;;;;13.80;55.94;100426.78;5017729;28;20045;-67
2022/06/08 03:58:03;;;;;;;7.47;2.70;;;;;;;13.80;55.83;100426.78;5017575;28;20562;-68
2022/06/08 04:00:30;;;;;;;6.30;2.35;;;;;;;13.95;55.37;100424.09;5017709;28;20077;-68
2022/06/08 04:02:58;;;;;;;5.00;2.38;;;;;;;13.98;55.34;100418.31;5017682;28;20064;-67
2022/06/08 04:05:27;;;;;;;7.28;2.75;;;;;;;13.95;55.41;100424.09;5017269;28;20549;-67
2022/06/08 04:07:54;;;;;;;6.20;2.47;;;;;;;14.06;55.53;100423.59;5017208;28;20100;-67
2022/06/08 04:10:21;;;;;;;4.53;2.55;;;;;;;13.87;56.11;100424.16;5017640;28;20137;-68
2022/06/08 04:12:48;;;;;;;5.35;2.42;;;;;;;13.67;56.71;100421.22;5016742;28;20050;-68
2022/06/08 04:15:41;;;;;;;5.68;3.10;;;;;;;13.76;56.92;100426.31;5016566;28;20096;-68
2022/06/08 04:18:01;;;;;;;12.38;3.40;;;;;;;13.66;57.53;100419.53;5016421;28;20049;-67
2022/06/08 04:20:28;;;;;;;8.18;4.30;;;;;;;13.68;57.62;100418.31;5016610;28;20049;-67
2022/06/08 04:22:55;;;;;;;15.55;8.65;;;;;;;13.66;57.43;100427.63;5015899;28;20141;-67
2022/06/08 04:25:22;;;;;;;8.32;3.25;;;;;;;13.49;57.70;100425.13;5016772;28;20050;-68
2022/06/08 04:27:48;;;;;;;9.30;3.88;;;;;;;13.57;57.67;100421.50;5017030;28;20053;-68
2022/06/08 04:30:15;;;;;;;14.05;3.92;;;;;;;13.67;57.63;100416.66;5016311;28;20060;-68
2022/06/08 04:32:41;;;;;;;8.45;3.45;;;;;;;13.68;57.58;100417.50;5016483;28;20073;-66
2022/06/08 04:35:08;;;;;;;10.63;4.38;;;;;;;13.82;57.17;100414.78;5016291;28;20082;-68
2022/06/08 04:37:37;;;;;;;11.38;3.50;;;;;;;13.81;57.00;100410.44;5016642;28;20100;-68
2022/06/08 04:40:10;;;;;;;11.95;3.95;;;;;;;13.85;56.98;100415.44;5016197;28;20363;-68
2022/06/08 04:42:37;;;;;;;7.88;3.20;;;;;;;13.99;56.93;100409.19;5016128;28;20050;-68
2022/06/08 04:45:06;;;;;;;14.02;5.30;;;;;;;13.97;57.07;100406.66;5016734;28;20082;-68
2022/06/08 04:47:33;;;;;;;12.85;4.97;;;;;;;13.96;57.04;100414.97;5016244;28;20129;-68
2022/06/08 04:49:59;;;;;;;5.85;3.47;;;;;;;14.03;57.13;100410.47;5016169;28;20084;-68
2022/06/08 04:52:26;;;;;;;10.93;3.70;;;;;;;14.07;57.27;100411.75;5016253;28;20556;-68
2022/06/08 04:54:52;;;;;;;8.00;2.80;;;;;;;14.04;57.42;100404.03;5016327;28;20046;-68
2022/06/08 04:57:19;;;;;;;7.78;2.97;;;;;;;14.04;57.42;100406.75;5016383;28;20405;-67
2022/06/08 04:59:45;;;;;;;5.18;3.22;;;;;;;14.10;57.30;100410.53;5016052;28;20133;-68
2022/06/08 05:02:42;;;;;;;8.02;3.15;;;;;;;14.05;57.59;100403.03;5016393;28;20101;-67
2022/06/08 05:04:59;;;;;;;14.00;2.83;;;;;;;14.14;57.26;100409.97;5015907;28;20046;-67
2022/06/08 05:07:25;;;;;;;6.60;2.58;;;;;;;14.14;57.44;100404.56;5016065;28;20142;-68
2022/06/08 05:09:52;;;;;;;4.88;2.50;;;;;;;14.26;57.23;100411.16;5015703;28;20189;-68
2022/06/08 05:12:18;;;;;;;6.78;2.55;;;;;;;14.26;56.81;100408.44;5015402;28;20128;-67
2022/06/08 05:14:45;;;;;;;9.68;2.72;;;;;;;14.43;56.48;100403.63;5015865;28;20080;-67
2022/06/08 05:17:11;;;;;;;5.47;2.47;;;;;;;14.48;56.10;100411.97;5016344;28;20498;-68
2022/06/08 05:19:38;;;;;;;7.78;2.63;;;;;;;14.47;56.10;100401.38;5016573;28;20512;-68
2022/06/08 05:22:04;;;;;;;6.85;2.20;;;;;;;14.52;55.72;100405.16;5016091;28;20133;-68
2022/06/08 05:24:31;;;;;;;6.30;2.30;;;;;;;14.61;55.19;100403.16;5015996;28;20136;-68
2022/06/08 05:26:57;;;;;;;4.90;2.60;;;;;;;14.61;55.34;100402.34;5016092;28;20136;-68
2022/06/08 05:29:24;;;;;;;7.65;2.20;;;;;;;14.71;55.25;100398.31;5017299;28;20137;-67
2022/06/08 05:31:50;;;;;;;8.85;2.42;;;;;;;14.65;55.30;100392.81;5015991;28;20418;-67
2022/06/08 05:34:18;;;;;;;10.00;2.72;;;;;;;14.72;55.31;100394.56;5015879;28;20042;-67
2022/06/08 05:36:45;;;;;;;8.82;2.60;;;;;;;14.79;55.38;100389.22;5015101;28;20120;-67
2022/06/08 05:39:11;;;;;;;10.15;3.05;;;;;;;15.13;54.67;100390.28;5015838;28;20085;-68
2022/06/08 05:41:38;;;;;;;8.57;2.67;;;;;;;15.15;54.65;100394.44;5016148;28;20050;-68
2022/06/08 05:44:05;;;;;;;8.70;2.88;;;;;;;15.25;54.81;100392.22;5016102;28;20050;-68
2022/06/08 05:46:32;;;;;;;8.18;2.60;;;;;;;15.48;54.20;100396.50;5015913;28;20046;-68
2022/06/08 05:48:59;;;;;;;7.95;2.10;;;;;;;15.53;54.07;100396.72;5015476;28;20091;-67
2022/06/08 05:51:25;;;;;;;11.55;2.67;;;;;;;15.82;53.24;100400.22;5015725;28;20559;-67
2022/06/08 05:53:52;;;;;;;9.73;2.90;;;;;;;15.77;53.49;100405.41;5015671;28;20085;-69
2022/06/08 05:56:18;;;;;;;8.07;2.75;;;;;;;15.78;53.27;100404.34;5015285;28;20467;-66
2022/06/08 05:58:45;;;;;;;9.45;3.50;;;;;;;15.77;53.46;100400.81;5015153;28;20386;-66
2022/06/08 06:01:11;;;;;;;5.88;2.10;;;;;;;15.59;53.66;100401.34;5015497;28;20145;-68
2022/06/08 06:03:44;;;;;;;6.45;2.58;;;;;;;15.48;53.26;100407.31;5015506;28;20132;-68
2022/06/08 06:06:11;;;;;;;6.05;2.20;;;;;;;15.51;53.49;100408.78;5018088;28;20108;-68
2022/06/08 06:08:38;;;;;;;7.28;2.33;;;;;;;15.36;53.68;100408.91;5015570;28;20084;-67
2022/06/08 06:11:04;;;;;;;6.38;2.88;;;;;;;15.42;53.86;100414.34;5015565;28;20141;-68
2022/06/08 06:13:32;;;;;;;10.02;2.95;;;;;;;15.68;53.55;100402.88;5015836;28;20482;-67
2022/06/08 06:15:58;;;;;;;3.50;2.50;;;;;;;15.43;53.71;100401.66;5015718;28;20053;-68
2022/06/08 06:18:25;;;;;;;7.70;2.92;;;;;;;15.58;53.74;100407.78;5015500;28;20133;-66
2022/06/08 06:20:52;;;;;;;8.88;2.40;;;;;;;15.64;53.52;100406.16;5015340;28;20072;-67
2022/06/08 06:23:18;;;;;;;5.85;2.30;;;;;;;15.87;53.19;100400.44;5015613;28;20085;-67
2022/06/08 06:25:45;;;;;;;8.80;2.38;;;;;;;16.11;52.75;100397.19;5015426;28;20508;-67
2022/06/08 06:28:11;;;;;;;5.53;2.40;;;;;;;16.21;52.12;100401.38;5015604;28;20140;-68
2022/06/08 06:30:38;;;;;;;4.25;2.30;;;;;;;16.53;50.92;100403.31;5015293;28;20482;-67
2022/06/08 06:33:04;;;;;;;7.57;2.28;;;;;;;16.54;50.50;100399.59;5015129;28;20073;-67
2022/06/08 06:35:31;;;;;;;6.93;2.53;;;;;;;16.57;50.76;100401.84;5015208;28;20470;-67
2022/06/08 06:38:03;;;;;;;11.65;2.45;;;;;;;16.76;50.31;100402.91;5015104;28;20478;-67
2022/06/08 06:40:30;;;;;;;4.47;2.30;;;;;;;16.83;50.26;100398.31;5014185;28;20100;-66
2022/06/08 06:42:57;;;;;;;11.52;2.50;;;;;;;16.93;50.27;100397.06;5014106;28;20082;-66
2022/06/08 06:45:24;;;;;;;5.45;2.47;;;;;;;16.90;49.84;100401.03;5014704;28;20077;-67
2022/06/08 06:47:51;;;;;;;9.32;2.38;;;;;;;17.02;49.48;100398.50;5018084;28;20141;-67
2022/06/08 06:50:17;;;;;;;5.88;1.95;;;;;;;16.89;49.65;100404.78;5018803;28;20101;-70
2022/06/08 06:52:45;;;;;;;8.02;2.00;;;;;;;16.93;49.62;100403.31;5019356;28;20072;-70
2022/06/08 06:55:20;;;;;;;9.07;1.95;;;;;;;17.01;49.29;100405.81;5018952;28;20082;-70
2022/06/08 06:57:47;;;;;;;4.80;2.13;;;;;;;17.09;48.91;100396.59;5018627;28;20144;-70
2022/06/08 07:00:16;;;;;;;5.35;1.67;;;;;;;17.15;49.45;100401.19;5018703;28;20073;-70
2022/06/08 07:02:43;;;;;;;7.05;2.00;;;;;;;17.42;48.61;100399.28;5019293;28;20136;-72
2022/06/08 07:05:34;;;;;;;13.02;1.70;;;;;;;17.76;47.66;100397.28;5018571;28;20046;-70
2022/06/08 07:08:01;;;;;;;6.85;1.85;;;;;;;17.77;47.37;100398.94;5009859;28;20149;-71
2022/06/08 07:10:27;;;;;;;5.68;1.95;;;;;;;17.67;47.44;100399.41;5018848;28;20133;-72
2022/06/08 07:12:57;;;;;;;7.35;2.08;;;;;;;17.66;47.39;100403.19;5018641;28;20469;-71
2022/06/08 07:15:24;;;;;;;8.57;1.77;;;;;;;18.06;47.08;100401.09;5017964;28;20152;-70
2022/06/08 07:17:51;;;;;;;4.30;1.40;;;;;;;18.26;46.46;100398.28;5018340;28;20129;-70
2022/06/08 07:20:18;;;;;;;3.55;1.60;;;;;;;18.27;46.49;100396.41;5019100;28;20097;-71
2022/06/08 07:22:46;;;;;;;8.07;1.85;;;;;;;18.48;46.22;100398.78;5018410;28;20092;-70
2022/06/08 07:25:14;;;;;;;7.03;1.98;;;;;;;18.50;46.43;100388.50;5018117;28;20042;-69
2022/06/08 07:27:42;;;;;;;4.50;1.50;;;;;;;18.52;46.30;100397.28;5018069;28;20538;-68
2022/06/08 07:30:09;;;;;;;6.78;1.88;;;;;;;19.34;44.93;100394.44;5018157;28;20133;-68
2022/06/08 07:32:36;;;;;;;3.47;1.80;;;;;;;19.63;43.87;100392.88;5018542;28;20144;-70
2022/06/08 07:35:04;;;;;;;3.88;1.60;;;;;;;19.91;43.63;100388.78;5017742;28;20081;-70
2022/06/08 07:37:31;;;;;;;5.22;1.80;;;;;;;20.04;42.75;100394.03;5017401;28;20454;-69
2022/06/08 07:39:58;;;;;;;1.90;1.35;;;;;;;20.49;42.00;100388.16;5000430;28;20128;-70
2022/06/08 07:42:24;;;;;;;11.52;4.15;;;;;;;20.95;41.07;100382.97;5018982;28;20081;-71
2022/06/08 07:44:51;;;;;;;4.72;1.30;;;;;;;21.72;39.25;100389.03;5018131;28;20052;-69
2022/06/08 07:47:17;;;;;;;6.65;1.42;;;;;;;21.77;39.54;100386.44;5018567;28;20053;-70
2022/06/08 07:49:49;;;;;;;4.30;1.42;;;;;;;21.57;39.50;100373.19;5018162;28;20084;-71
2022/06/08 07:52:19;;;;;;;5.15;1.60;;;;;;;21.05;40.95;100380.50;5017569;28;20498;-70
2022/06/08 07:54:47;;;;;;;6.57;2.33;;;;;;;21.65;40.26;100380.16;5018488;28;20136;-70
2022/06/08 07:57:20;;;;;;;5.55;1.35;;;;;;;22.18;38.67;100376.28;5017741;28;20140;-69
2022/06/08 07:59:48;;;;;;;3.97;1.20;;;;;;;23.23;36.95;100369.25;5016979;28;20180;-68
2022/06/08 08:02:14;;;;;;;5.38;1.42;;;;;;;23.23;35.99;100371.19;5017602;28;20140;-70
2022/06/08 08:04:42;;;;;;;5.88;1.10;;;;;;;22.96;36.46;100365.56;5017697;28;20046;-71
2022/06/08 08:07:09;;;;;;;3.20;1.20;;;;;;;23.49;35.84;100373.16;5017920;28;20470;-69
2022/06/08 08:09:37;;;;;;;3.22;1.10;;;;;;;23.79;35.22;100371.91;5018816;28;20066;-69
2022/06/08 08:12:04;;;;;;;5.95;1.27;;;;;;;23.22;36.04;100364.03;5017764;28;20107;-69
2022/06/08 08:14:33;;;;;;;3.75;1.90;;;;;;;23.53;36.12;100368.00;5016946;28;20073;-70
2022/06/08 08:17:03;;;;;;;3.10;1.30;;;;;;;23.30;36.20;100363.59;5017088;28;20500;-71
2022/06/08 08:19:32;;;;;;;8.57;1.10;;;;;;;22.86;36.52;100360.75;5017174;28;20080;-70
2022/06/08 08:21:59;;;;;;;7.20;4.00;;;;;;;22.93;35.90;100360.59;5017443;28;20057;-69
2022/06/08 08:24:27;;;;;;;4.78;2.42;;;;;;;22.18;37.86;100359.06;5016909;28;20049;-70
2022/06/08 08:26:55;;;;;;;27.75;3.00;;;;;;;22.00;38.54;100357.38;5017376;28;20060;-69
2022/06/08 08:29:22;;;;;;;3.20;1.08;;;;;;;21.38;39.35;100350.69;5017144;28;20085;-68
2022/06/08 08:31:49;;;;;;;5.13;0.98;;;;;;;21.40;39.18;100358.63;5016807;28;20085;-68
2022/06/08 08:34:16;;;;;;;6.32;1.08;;;;;;;21.54;38.95;100349.09;5017327;28;20050;-68
2022/06/08 08:36:43;;;;;;;4.05;1.23;;;;;;;21.81;38.82;100354.84;5017505;28;20490;-68
2022/06/08 08:39:10;;;;;;;8.60;1.10;;;;;;;21.57;39.15;100342.34;5017918;28;20085;-69
2022/06/08 08:44:34;;;;;;;2.75;1.17;;;;;;;21.89;38.79;100350.06;5016537;28;20072;-69
2022/06/08 08:47:34;;;;;;;3.85;1.27;;;;;;;21.71;39.40;100349.16;5017357;28;20089;-68
2022/06/08 08:50:13;;;;;;;4.75;1.38;;;;;;;21.75;39.48;100339.41;5016045;28;20136;-68
2022/06/08 08:53:16;;;;;;;4.28;1.13;;;;;;;21.51;40.00;100335.13;5015542;28;20136;-70
2022/06/08 08:56:12;;;;;;;5.13;1.50;;;;;;;20.93;41.30;100328.66;5016595;28;20480;-68
2022/06/08 08:58:42;;;;;;;3.42;1.30;;;;;;;21.04;41.12;100324.25;5016404;28;20133;-68
2022/06/08 09:01:29;;;;;;;11.40;2.67;;;;;;;21.70;39.82;100331.13;5015342;28;20140;-68
2022/06/08 09:04:19;;;;;;;5.95;1.30;;;;;;;22.73;37.45;100334.59;5015592;28;20085;-70
2022/06/08 09:06:46;;;;;;;2.50;1.15;;;;;;;23.39;36.49;100334.69;5015737;28;20084;-70
2022/06/08 09:09:16;;;;;;;2.92;1.40;;;;;;;23.40;36.73;100328.16;5016051;28;20546;-67
2022/06/08 09:11:45;;;;;;;4.47;1.00;;;;;;;22.66;37.38;100325.72;5016139;28;20073;-69
2022/06/08 09:14:47;;;;;;;1.95;1.00;;;;;;;22.59;37.72;100327.81;5016452;28;20046;-70
2022/06/08 09:17:15;;;;;;;8.60;1.23;;;;;;;23.07;37.17;100331.78;5016471;28;20081;-68
2022/06/08 09:19:46;;;;;;;3.08;1.17;;;;;;;24.19;35.23;100324.06;5014762;28;20500;-68
2022/06/08 09:22:13;;;;;;;2.03;0.90;;;;;;;24.54;34.71;100317.25;5016438;28;20465;-70
2022/06/08 09:24:46;;;;;;;5.22;1.25;;;;;;;24.13;35.08;100314.16;5015482;28;20132;-69
2022/06/08 09:27:25;;;;;;;2.00;0.90;;;;;;;25.00;33.41;100315.66;5015457;28;20149;-68
2022/06/08 09:30:12;;;;;;;2.92;1.40;;;;;;;23.75;35.17;100313.22;5014907;28;20060;-70
2022/06/08 09:32:50;;;;;;;3.30;1.02;;;;;;;23.49;35.41;100303.88;5015310;28;20458;-69
2022/06/08 09:35:22;;;;;;;2.90;0.95;;;;;;;22.61;37.13;100312.00;5014969;28;20100;-69
2022/06/08 09:37:52;;;;;;;5.68;1.10;;;;;;;22.99;36.41;100319.38;5013189;28;20054;-69
2022/06/08 09:40:38;;;;;;;1.67;0.90;;;;;;;23.38;35.59;100304.84;5014617;28;20421;-68
2022/06/08 09:43:21;;;;;;;1.20;1.00;;;;;;;22.91;36.97;100310.75;5014400;28;20542;-68
2022/06/08 09:46:02;;;;;;;3.83;1.00;;;;;;;22.49;37.70;100305.78;5014761;28;20092;-70
2022/06/08 09:51:36;;;;;;;2.75;0.82;;;;;;;21.86;37.83;100291.31;5014661;28;20053;-70
2022/06/08 09:54:21;;;;;;;3.35;1.10;;;;;;;21.71;37.88;100300.03;5015070;28;20136;-68
2022/06/08 09:57:00;;;;;;;2.97;1.42;;;;;;;21.82;38.30;100290.16;5014654;28;20436;-69
2022/06/08 09:59:39;;;;;;;4.43;1.42;;;;;;;21.15;40.73;100277.09;5014534;28;20490;-68
2022/06/08 10:02:24;;;;;;;4.70;1.67;;;;;;;21.13;41.08;100279.22;5015091;28;20462;-69
2022/06/08 10:05:13;;;;;;;4.55;1.15;;;;;;;21.42;40.64;100273.78;5014100;28;20490;-69
2022/06/08 10:08:13;;;;;;;5.18;1.48;;;;;;;21.35;40.27;100274.75;5014283;28;20054;-69
2022/06/08 10:10:52;;;;;;;3.92;1.25;;;;;;;21.69;39.76;100269.41;5014521;28;20141;-69
2022/06/08 10:13:23;;;;;;;5.68;1.10;;;;;;;21.20;40.60;100262.72;5014760;28;20081;-68
2022/06/08 10:15:57;;;;;;;1.70;1.00;;;;;;;21.39;40.48;100261.47;4997423;28;20077;-70
2022/06/08 10:18:37;;;;;;;1.05;0.93;;;;;;;22.36;38.01;100267.81;5014227;28;20320;-70
2022/06/08 10:21:17;;;;;;;5.00;1.20;;;;;;;22.36;37.62;100263.19;5014115;28;20482;-69
2022/06/08 10:24:17;;;;;;;1.20;0.82;;;;;;;22.11;37.77;100269.06;5014222;28;20058;-69
2022/06/08 10:26:52;;;;;;;5.13;0.90;;;;;;;21.80;37.83;100270.44;5014183;28;20538;-71
2022/06/08 10:29:42;;;;;;;3.03;0.85;;;;;;;21.88;38.45;100266.50;5014315;28;20085;-70
2022/06/08 10:32:14;;;;;;;4.78;1.20;;;;;;;22.51;36.94;100257.16;5014472;28;20459;-70
2022/06/08 10:34:41;;;;;;;7.75;1.20;;;;;;;23.23;35.53;100254.31;5014053;28;20061;-69
2022/06/08 10:37:18;;;;;;;4.65;0.80;;;;;;;23.15;34.78;100256.66;5013660;28;20077;-70
2022/06/08 10:39:47;;;;;;;3.45;0.82;;;;;;;22.58;35.89;100259.72;5014002;28;20146;-68
2022/06/08 10:45:23;;;;;;;3.45;1.05;;;;;;;22.95;35.43;100247.13;5014377;28;20546;-68
2022/06/08 10:47:55;;;;;;;4.35;1.15;;;;;;;22.73;35.92;100243.53;5014001;28;20046;-70
2022/06/08 10:50:26;;;;;;;;;;;;;;;22.42;35.98;100239.50;5014290;28;20089;-67
2022/06/08 10:54:52;;;;;;;3.15;0.90;;;;;;;22.25;35.69;100239.50;5014325;28;20360;-68
2022/06/08 10:55:42;;;;;;;3.17;0.80;;;;;;;22.25;35.88;100243.06;5014001;28;20099;-68
2022/06/08 10:58:12;;;;;;;3.17;0.90;;;;;;;21.66;37.10;100242.59;5013839;28;20065;-67
2022/06/08 11:00:47;;;;;;;2.38;1.00;;;;;;;21.18;37.84;100235.66;5014752;28;20132;-70
2022/06/08 11:03:46;;;;;;;3.53;0.70;;;;;;;20.84;38.79;100234.69;5014081;28;20050;-69
2022/06/08 11:06:58;;;;;;;1.65;0.60;;;;;;;20.66;38.66;100239.22;5013658;28;20050;-69
2022/06/08 11:09:34;;;;;;;4.55;0.93;;;;;;;20.55;39.06;100231.03;5010847;28;20058;-69
2022/06/08 11:12:20;;;;;;;2.15;0.80;;;;;;;20.79;38.50;100229.94;5014175;28;20141;-69
2022/06/08 11:14:47;;;;;;;3.72;0.68;;;;;;;20.73;38.97;100228.19;5014321;28;20454;-70
2022/06/08 11:17:31;;;;;;;1.95;0.80;;;;;;;20.64;39.22;100224.16;5013953;28;20084;-69
2022/06/08 11:20:25;;;;;;;2.13;0.70;;;;;;;20.63;39.41;100222.53;5013994;28;20093;-70
2022/06/08 11:22:57;;;;;;;2.85;0.80;;;;;;;20.99;38.77;100215.09;5013622;28;20046;-69
2022/06/08 11:25:32;;;;;;;3.50;0.65;;;;;;;20.74;39.69;100216.22;5013718;28;20129;-69
2022/06/08 11:28:28;;;;;;;3.90;0.98;;;;;;;21.19;38.79;100218.25;5014163;28;20088;-70
2022/06/08 11:30:59;;;;;;;8.52;1.17;;;;;;;22.07;37.39;100218.75;5013461;28;20470;-68
2022/06/08 11:33:48;;;;;;;1.50;0.70;;;;;;;22.51;36.15;100210.69;5015400;28;20113;-69
2022/06/08 11:36:43;;;;;;;3.15;0.70;;;;;;;22.17;37.20;100221.63;5017804;28;20046;-70
2022/06/08 11:39:37;;;;;;;4.28;0.70;;;;;;;21.75;37.83;100213.00;5016963;28;20149;-70
2022/06/08 11:42:30;;;;;;;1.50;0.93;;;;;;;21.67;37.58;100211.50;5017568;28;20061;-70
2022/06/08 11:45:07;;;;;;;2.00;0.88;;;;;;;21.54;37.82;100200.91;5017225;28;20053;-69
2022/06/08 11:47:45;;;;;;;1.52;0.85;;;;;;;21.67;38.27;100200.59;5001327;28;20122;-70
2022/06/08 11:50:18;;;;;;;2.03;0.75;;;;;;;21.37;38.10;100189.94;5018382;28;20140;-70
2022/06/08 11:52:55;;;;;;;3.63;1.48;;;;;;;20.95;38.26;100194.81;5017304;28;20136;-69
2022/06/08 11:55:29;;;;;;;2.90;0.88;;;;;;;21.00;38.85;100192.19;5017361;28;20470;-68
2022/06/08 11:57:58;;;;;;;2.05;0.75;;;;;;;21.10;38.41;100181.47;5016954;28;20489;-69
2022/06/08 12:00:29;;;;;;;6.10;0.95;;;;;;;20.91;38.82;100184.41;5016981;28;20132;-68
2022/06/08 12:03:02;;;;;;;3.13;0.90;;;;;;;20.91;38.59;100189.84;5017053;28;20469;-70
2022/06/08 12:05:32;;;;;;;8.27;0.77;;;;;;;20.88;38.30;100195.78;5017102;28;20141;-70